createdAt,value
2022-10-19T00:01:08.258Z,18.27
2022-10-19T00:03:35.982Z,15.68
2022-10-19T00:06:20.000Z,23.02
2022-10-19T00:08:47.358Z,19.40
2022-10-19T00:11:14.675Z,18.70
2022-10-19T00:13:41.992Z,19.95
2022-10-19T00:16:11.652Z,14.63
2022-10-19T00:18:40.052Z,24.27
2022-10-19T00:21:08.287Z,17.67
2022-10-19T00:23:35.734Z,18.73
2022-10-19T00:26:03.042Z,22.60
2022-10-19T00:28:30.504Z,19.15
2022-10-19T00:31:01.679Z,20.88
2022-10-19T00:33:29.148Z,18.35
2022-10-19T00:35:56.458Z,14.80
2022-10-19T00:38:23.772Z,17.95
2022-10-19T00:40:51.196Z,18.05
2022-10-19T00:43:26.687Z,16.55
2022-10-19T00:45:54.012Z,18.92
2022-10-19T00:48:30.656Z,15.70
2022-10-19T00:50:58.592Z,19.23
2022-10-19T00:53:27.184Z,20.10
2022-10-19T00:55:54.785Z,19.45
2022-10-19T00:58:22.096Z,18.92
2022-10-19T01:00:49.507Z,16.48
2022-10-19T01:03:16.930Z,17.13
2022-10-19T01:05:44.270Z,19.17
2022-10-19T01:08:11.560Z,15.48
2022-10-19T01:10:51.691Z,18.67
2022-10-19T01:13:37.267Z,17.13
2022-10-19T01:16:09.444Z,16.00
2022-10-19T01:18:59.582Z,18.08
2022-10-19T01:21:30.125Z,17.63
2022-10-19T01:24:39.795Z,16.77
2022-10-19T01:27:16.202Z,22.35
2022-10-19T01:30:12.186Z,17.05
2022-10-19T01:32:58.406Z,16.05
2022-10-19T01:35:27.596Z,18.55
2022-10-19T01:37:57.675Z,20.55
2022-10-19T01:40:34.071Z,19.00
2022-10-19T01:43:04.223Z,17.77
2022-10-19T01:45:55.333Z,21.02
2022-10-19T01:48:25.408Z,18.45
2022-10-19T01:50:58.023Z,21.17
2022-10-19T01:53:26.054Z,19.27
2022-10-19T01:55:53.386Z,26.48
2022-10-19T01:58:24.825Z,21.60
2022-10-19T02:00:52.732Z,22.75
2022-10-19T02:03:20.323Z,21.88
2022-10-19T02:05:47.709Z,21.27
2022-10-19T02:08:20.765Z,22.40
2022-10-19T02:10:48.105Z,24.88
2022-10-19T02:13:15.498Z,22.08
2022-10-19T02:15:46.378Z,24.33
2022-10-19T02:18:15.617Z,22.13
2022-10-19T02:20:42.968Z,25.90
2022-10-19T02:23:10.326Z,24.38
2022-10-19T02:25:37.663Z,22.10
2022-10-19T02:28:05.004Z,23.92
2022-10-19T02:30:32.346Z,26.85
2022-10-19T02:32:59.713Z,22.55
2022-10-19T02:35:27.048Z,27.13
2022-10-19T02:37:55.828Z,31.80
2022-10-19T02:40:23.875Z,26.88
2022-10-19T02:43:02.192Z,26.58
2022-10-19T02:45:33.209Z,29.67
2022-10-19T02:48:04.447Z,30.40
2022-10-19T02:50:31.756Z,34.17
2022-10-19T02:52:59.378Z,34.25
2022-10-19T02:55:26.754Z,26.13
2022-10-19T02:57:54.714Z,28.17
2022-10-19T03:00:22.052Z,25.00
2022-10-19T03:02:49.527Z,28.60
2022-10-19T03:05:16.906Z,31.17
2022-10-19T03:07:44.244Z,29.40
2022-10-19T03:10:11.560Z,32.08
2022-10-19T03:12:38.870Z,31.92
2022-10-19T03:15:07.433Z,30.85
2022-10-19T03:17:35.977Z,31.20
2022-10-19T03:20:03.903Z,31.38
2022-10-19T03:22:31.265Z,34.40
2022-10-19T03:24:58.581Z,31.02
2022-10-19T03:27:25.883Z,27.98
2022-10-19T03:29:53.214Z,29.40
2022-10-19T03:32:20.547Z,28.55
2022-10-19T03:34:47.846Z,26.92
2022-10-19T03:37:15.326Z,27.70
2022-10-19T03:39:42.936Z,24.65
2022-10-19T03:42:10.254Z,24.27
2022-10-19T03:44:37.652Z,29.90
2022-10-19T03:47:04.997Z,27.60
2022-10-19T03:49:34.567Z,28.65
2022-10-19T03:52:04.280Z,29.05
2022-10-19T03:54:31.571Z,26.88
2022-10-19T03:56:58.901Z,29.90
2022-10-19T03:59:26.325Z,28.40
2022-10-19T04:01:53.661Z,28.15
2022-10-19T04:04:21.056Z,28.80
2022-10-19T04:06:49.416Z,26.38
2022-10-19T04:09:18.368Z,26.38
2022-10-19T04:11:45.783Z,27.52
2022-10-19T04:14:19.168Z,28.40
2022-10-19T04:16:54.454Z,27.35
2022-10-19T04:19:21.777Z,28.90
2022-10-19T04:21:49.211Z,26.60
2022-10-19T04:24:17.766Z,27.00
2022-10-19T04:26:49.911Z,25.73
2022-10-19T04:29:19.073Z,26.33
2022-10-19T04:31:46.632Z,25.30
2022-10-19T04:34:13.956Z,27.83
2022-10-19T04:36:41.242Z,26.88
2022-10-19T04:39:08.779Z,26.98
2022-10-19T04:41:36.837Z,31.13
2022-10-19T04:44:04.629Z,29.75
2022-10-19T04:46:32.155Z,27.80
2022-10-19T04:48:59.819Z,29.90
2022-10-19T04:51:27.298Z,26.00
2022-10-19T04:53:59.397Z,27.60
2022-10-19T04:56:27.739Z,28.92
2022-10-19T04:58:56.578Z,25.85
2022-10-19T05:01:24.730Z,26.60
2022-10-19T05:06:24.501Z,30.60
2022-10-19T05:08:51.861Z,26.48
2022-10-19T05:11:19.427Z,27.92
2022-10-19T05:13:46.878Z,28.33
2022-10-19T05:16:16.784Z,27.20
2022-10-19T05:18:47.849Z,32.70
2022-10-19T05:21:15.265Z,25.42
2022-10-19T05:23:42.616Z,32.08
2022-10-19T05:26:12.114Z,30.13
2022-10-19T05:28:39.543Z,28.98
2022-10-19T05:31:11.732Z,26.90
2022-10-19T05:33:39.332Z,36.20
2022-10-19T05:36:16.806Z,29.75
2022-10-19T05:38:45.107Z,25.75
2022-10-19T05:41:12.667Z,28.23
2022-10-19T05:43:40.761Z,31.00
2022-10-19T05:46:10.029Z,28.73
2022-10-19T05:48:37.481Z,29.23
2022-10-19T05:51:05.424Z,27.80
2022-10-19T05:53:33.320Z,28.00
2022-10-19T05:56:00.715Z,27.52
2022-10-19T05:58:28.019Z,35.15
2022-10-19T06:00:56.206Z,33.67
2022-10-19T06:03:24.217Z,31.25
2022-10-19T06:05:52.392Z,29.83
2022-10-19T06:08:20.114Z,31.40
2022-10-19T06:10:47.888Z,32.78
2022-10-19T06:13:15.747Z,29.98
2022-10-19T06:15:43.118Z,30.60
2022-10-19T06:18:11.436Z,35.47
2022-10-19T06:20:39.728Z,35.97
2022-10-19T06:23:07.388Z,41.40
2022-10-19T06:25:35.175Z,37.17
2022-10-19T06:28:02.566Z,33.70
2022-10-19T06:30:29.909Z,33.55
2022-10-19T06:32:58.908Z,30.88
2022-10-19T06:35:26.532Z,34.45
2022-10-19T06:37:56.617Z,34.88
2022-10-19T06:40:24.946Z,30.52
2022-10-19T06:42:52.278Z,33.33
2022-10-19T06:45:19.734Z,33.10
2022-10-19T06:50:15.352Z,30.60
2022-10-19T06:52:42.772Z,33.72
2022-10-19T06:55:10.136Z,34.97
2022-10-19T06:57:37.507Z,27.77
2022-10-19T07:00:06.328Z,29.05
2022-10-19T07:02:34.271Z,27.58
2022-10-19T07:05:06.032Z,33.75
2022-10-19T07:07:35.119Z,27.25
2022-10-19T07:10:03.546Z,27.42
2022-10-19T07:12:31.019Z,29.30
2022-10-19T07:14:58.359Z,29.83
2022-10-19T07:17:25.800Z,32.22
2022-10-19T07:19:53.078Z,31.85
2022-10-19T07:22:25.657Z,34.35
2022-10-19T07:24:55.227Z,28.75
2022-10-19T07:27:22.565Z,30.63
2022-10-19T07:29:49.904Z,30.80
2022-10-19T07:32:17.256Z,35.10
2022-10-19T07:34:44.559Z,33.92
2022-10-19T07:37:11.853Z,32.95
2022-10-19T07:39:39.159Z,34.30
2022-10-19T07:42:06.526Z,39.55
2022-10-19T07:44:33.863Z,36.05
2022-10-19T07:47:01.242Z,41.17
2022-10-19T07:49:28.597Z,36.63
2022-10-19T07:51:56.487Z,39.92
2022-10-19T07:54:24.661Z,43.97
2022-10-19T07:56:52.031Z,38.45
2022-10-19T07:59:19.356Z,43.83
2022-10-19T08:01:48.686Z,42.38
2022-10-19T08:04:59.017Z,35.60
2022-10-19T08:07:04.202Z,40.22
2022-10-19T08:09:52.304Z,41.97
2022-10-19T08:12:18.969Z,47.08
2022-10-19T08:14:48.015Z,43.00
2022-10-19T08:17:17.780Z,41.50
2022-10-19T08:19:46.233Z,40.97
2022-10-19T08:22:13.675Z,39.80
2022-10-19T08:24:41.181Z,38.20
2022-10-19T08:27:09.113Z,46.53
2022-10-19T08:29:36.437Z,42.15
2022-10-19T08:32:03.841Z,41.33
2022-10-19T08:34:32.947Z,44.75
2022-10-19T08:37:06.795Z,46.47
2022-10-19T08:39:42.760Z,50.58
2022-10-19T08:42:21.841Z,56.30
2022-10-19T08:44:49.194Z,50.38
2022-10-19T08:47:28.533Z,55.50
2022-10-19T08:49:56.105Z,50.75
2022-10-19T08:52:29.566Z,55.30
2022-10-19T08:55:09.231Z,51.63
2022-10-19T08:57:42.566Z,49.10
2022-10-19T09:00:15.533Z,50.67
2022-10-19T09:03:05.014Z,48.28
2022-10-19T09:06:07.738Z,49.58
2022-10-19T09:08:38.431Z,42.85
2022-10-19T09:11:05.931Z,49.53
2022-10-19T09:14:00.574Z,52.78
2022-10-19T09:16:30.887Z,50.35
2022-10-19T09:18:58.234Z,51.88
2022-10-19T09:21:46.348Z,48.53
2022-10-19T09:24:41.898Z,49.30
2022-10-19T09:27:16.090Z,53.20
2022-10-19T09:29:54.013Z,52.85
2022-10-19T09:32:41.620Z,51.22
2022-10-19T09:35:28.841Z,48.05
2022-10-19T09:37:56.204Z,52.40
2022-10-19T09:40:28.461Z,47.53
2022-10-19T09:42:59.591Z,44.10
2022-10-19T09:45:29.714Z,43.78
2022-10-19T09:48:02.409Z,43.40
2022-10-19T09:50:36.234Z,40.58
2022-10-19T09:53:04.921Z,41.38
2022-10-19T09:55:39.672Z,42.50
2022-10-19T09:58:17.981Z,37.97
2022-10-19T10:00:45.338Z,37.30
2022-10-19T10:03:43.650Z,37.17
2022-10-19T10:06:14.086Z,36.75
2022-10-19T10:08:59.066Z,33.53
2022-10-19T10:11:34.522Z,29.75
2022-10-19T10:14:29.029Z,26.85
2022-10-19T10:16:57.681Z,23.50
2022-10-19T10:19:29.406Z,28.17
2022-10-19T10:21:57.927Z,25.92
2022-10-19T10:24:32.299Z,27.55
2022-10-19T10:29:32.732Z,26.83
2022-10-19T10:32:00.026Z,37.75
2022-10-19T10:34:49.506Z,29.20
2022-10-19T10:37:29.971Z,25.45
2022-10-19T10:40:00.427Z,28.63
2022-10-19T10:42:43.174Z,26.17
2022-10-19T10:45:17.837Z,24.95
2022-10-19T10:47:48.397Z,23.55
2022-10-19T10:50:24.261Z,32.50
2022-10-19T10:53:44.389Z,27.40
2022-10-19T10:56:21.008Z,32.60
2022-10-19T10:59:04.347Z,29.38
2022-10-19T11:01:35.606Z,28.77
2022-10-19T11:04:11.191Z,29.77
2022-10-19T11:06:44.575Z,29.50
2022-10-19T11:09:33.918Z,32.72
2022-10-19T11:12:05.878Z,29.38
2022-10-19T11:14:39.391Z,32.38
2022-10-19T11:17:11.102Z,35.00
2022-10-19T11:19:44.382Z,31.98
2022-10-19T11:22:30.312Z,33.10
2022-10-19T11:25:22.152Z,32.20
2022-10-19T11:28:13.676Z,34.25
2022-10-19T11:30:50.525Z,32.10
2022-10-19T11:36:32.818Z,24.25
2022-10-19T11:39:20.186Z,24.15
2022-10-19T11:41:55.261Z,21.73
2022-10-19T11:44:54.351Z,20.52
2022-10-19T11:47:32.012Z,24.80
2022-10-19T11:50:02.419Z,20.73
2022-10-19T11:52:36.077Z,23.95
2022-10-19T11:55:20.541Z,17.45
2022-10-19T11:57:51.735Z,18.40
2022-10-19T12:00:39.368Z,16.75
2022-10-19T12:03:28.179Z,17.58
2022-10-19T12:06:16.621Z,18.27
2022-10-19T12:08:52.413Z,16.52
2022-10-19T12:11:38.005Z,13.45
2022-10-19T12:14:08.843Z,12.95
2022-10-19T12:16:38.305Z,11.27
2022-10-19T12:19:06.031Z,11.18
2022-10-19T12:21:36.108Z,10.50
2022-10-19T12:24:05.184Z,11.20
2022-10-19T12:26:35.353Z,16.08
2022-10-19T12:29:06.106Z,13.52
2022-10-19T12:31:33.405Z,10.65
2022-10-19T12:34:02.639Z,12.60
2022-10-19T12:36:41.775Z,15.68
2022-10-19T12:39:21.466Z,11.52
2022-10-19T12:42:13.672Z,13.10
2022-10-19T12:44:59.194Z,10.93
2022-10-19T12:47:26.697Z,11.57
2022-10-19T12:49:57.879Z,12.50
2022-10-19T12:52:40.173Z,14.23
2022-10-19T12:55:16.563Z,14.88
2022-10-19T12:57:48.078Z,15.98
2022-10-19T13:00:25.885Z,16.20
2022-10-19T13:03:05.671Z,14.93
2022-10-19T13:05:33.523Z,18.30
2022-10-19T13:08:02.518Z,18.48
2022-10-19T13:10:30.169Z,19.30
2022-10-19T13:12:57.580Z,16.55
2022-10-19T13:15:34.191Z,15.05
2022-10-19T13:18:05.482Z,20.63
2022-10-19T13:23:10.904Z,19.85
2022-10-19T13:25:41.140Z,17.25
2022-10-19T13:28:11.270Z,15.63
2022-10-19T13:30:38.631Z,16.05
2022-10-19T13:33:33.196Z,18.50
2022-10-19T13:36:00.669Z,17.65
2022-10-19T13:38:40.583Z,14.85
2022-10-19T13:41:25.594Z,18.50
2022-10-19T13:44:06.726Z,15.38
2022-10-19T13:46:52.323Z,15.73
2022-10-19T13:49:33.555Z,16.60
2022-10-19T13:52:00.825Z,16.23
2022-10-19T13:54:54.691Z,16.30
2022-10-19T13:57:46.136Z,14.23
2022-10-19T14:00:22.064Z,12.35
2022-10-19T14:03:19.894Z,14.65
2022-10-19T14:06:22.356Z,14.52
2022-10-19T14:09:15.135Z,13.93
2022-10-19T14:11:44.113Z,16.88
2022-10-19T14:14:11.410Z,10.90
2022-10-19T14:17:02.978Z,13.68
2022-10-19T14:19:45.935Z,13.15
2022-10-19T14:22:20.400Z,17.67
2022-10-19T14:27:22.485Z,14.38
2022-10-19T14:29:51.139Z,11.60
2022-10-19T14:32:21.187Z,12.23
2022-10-19T14:34:48.756Z,12.27
2022-10-19T14:37:22.814Z,9.85
2022-10-19T14:40:05.667Z,15.18
2022-10-19T14:42:43.818Z,10.80
2022-10-19T14:45:22.251Z,17.00
2022-10-19T14:47:59.995Z,13.98
2022-10-19T14:50:42.452Z,12.18
2022-10-19T14:53:35.800Z,13.05
2022-10-19T14:56:32.268Z,13.15
2022-10-19T14:59:02.985Z,13.50
2022-10-19T15:01:30.351Z,14.50
2022-10-19T15:03:57.693Z,12.68
2022-10-19T15:06:33.280Z,15.18
2022-10-19T15:09:07.357Z,17.40
2022-10-19T15:11:40.658Z,15.73
2022-10-19T15:14:26.623Z,13.98
2022-10-19T15:17:01.532Z,13.90
2022-10-19T15:19:33.526Z,12.98
2022-10-19T15:22:14.852Z,12.18
2022-10-19T15:25:08.014Z,14.55
2022-10-19T15:27:47.199Z,13.90
2022-10-19T15:30:17.592Z,11.77
2022-10-19T15:32:45.931Z,18.73
2022-10-19T15:35:19.938Z,11.38
2022-10-19T15:37:48.455Z,11.55
2022-10-19T15:40:39.129Z,11.93
2022-10-19T15:43:33.617Z,11.95
2022-10-19T15:46:13.407Z,15.23
2022-10-19T15:48:41.260Z,12.75
2022-10-19T15:51:26.908Z,12.73
2022-10-19T15:53:59.100Z,12.23
2022-10-19T15:56:29.116Z,11.38
2022-10-19T15:58:58.891Z,11.63
2022-10-19T16:01:27.791Z,10.85
2022-10-19T16:03:55.246Z,12.32
2022-10-19T16:06:24.774Z,11.93
2022-10-19T16:08:53.970Z,11.68
2022-10-19T16:11:22.920Z,10.43
2022-10-19T16:13:50.409Z,12.18
2022-10-19T16:16:31.704Z,9.57
2022-10-19T16:18:59.369Z,9.77
2022-10-19T16:21:31.864Z,9.63
2022-10-19T16:23:59.444Z,11.23
2022-10-19T16:26:26.967Z,13.77
2022-10-19T16:28:55.053Z,15.77
2022-10-19T16:31:22.854Z,9.80
2022-10-19T16:33:50.279Z,15.55
2022-10-19T16:36:20.261Z,13.35
2022-10-19T16:38:47.882Z,10.38
2022-10-19T16:41:15.394Z,9.93
2022-10-19T16:43:43.033Z,11.48
2022-10-19T16:46:10.430Z,11.00
2022-10-19T16:48:38.308Z,10.60
2022-10-19T16:51:05.620Z,11.43
2022-10-19T16:53:33.784Z,11.38
2022-10-19T16:56:08.738Z,18.75
2022-10-19T16:58:39.101Z,19.15
2022-10-19T17:01:10.487Z,17.98
2022-10-19T17:03:37.965Z,17.80
2022-10-19T17:06:06.148Z,18.05
2022-10-19T17:08:37.059Z,13.60
2022-10-19T17:11:25.635Z,11.35
2022-10-19T17:13:54.445Z,11.90
2022-10-19T17:16:21.984Z,17.40
2022-10-19T17:18:49.400Z,12.10
2022-10-19T17:21:18.872Z,11.65
2022-10-19T17:23:46.294Z,13.55
2022-10-19T17:26:13.673Z,11.48
2022-10-19T17:28:41.065Z,13.43
2022-10-19T17:31:12.838Z,14.90
2022-10-19T17:33:40.860Z,16.98
2022-10-19T17:36:22.455Z,18.48
2022-10-19T17:38:49.847Z,12.30
2022-10-19T17:41:18.286Z,13.55
2022-10-19T17:43:46.887Z,14.65
2022-10-19T17:46:16.127Z,13.35
2022-10-19T17:48:43.809Z,13.50
2022-10-19T17:51:16.007Z,16.15
2022-10-19T17:53:44.240Z,11.35
2022-10-19T17:56:12.659Z,11.40
2022-10-19T17:58:40.198Z,12.93
2022-10-19T18:01:07.803Z,15.55
2022-10-19T18:03:35.358Z,14.20
2022-10-19T18:06:18.512Z,15.88
2022-10-19T18:08:47.643Z,13.10
2022-10-19T18:11:19.503Z,16.58
2022-10-19T18:13:47.372Z,13.35
2022-10-19T18:16:18.608Z,12.60
2022-10-19T18:18:48.594Z,13.38
2022-10-19T18:21:20.390Z,12.15
2022-10-19T18:23:47.921Z,16.13
2022-10-19T18:26:17.063Z,12.27
2022-10-19T18:28:44.375Z,13.23
2022-10-19T18:31:19.772Z,14.98
2022-10-19T18:33:48.183Z,13.70
2022-10-19T18:36:15.641Z,14.90
2022-10-19T18:38:43.011Z,14.82
2022-10-19T18:43:44.001Z,16.65
2022-10-19T18:46:11.828Z,13.85
2022-10-19T18:48:39.667Z,12.30
2022-10-19T18:51:07.832Z,21.88
2022-10-19T18:53:35.354Z,15.18
2022-10-19T18:56:04.583Z,14.77
2022-10-19T18:58:32.254Z,16.13
2022-10-19T19:01:10.259Z,14.07
2022-10-19T19:03:38.593Z,17.48
2022-10-19T19:06:07.742Z,13.23
2022-10-19T19:08:35.250Z,15.63
2022-10-19T19:11:11.932Z,13.55
2022-10-19T19:13:39.456Z,15.63
2022-10-19T19:16:07.078Z,15.40
2022-10-19T19:18:34.924Z,16.83
2022-10-19T19:21:02.804Z,12.13
2022-10-19T19:23:30.345Z,14.55
2022-10-19T19:25:58.013Z,14.60
2022-10-19T19:28:25.427Z,17.25
2022-10-19T19:30:52.797Z,27.35
2022-10-19T19:33:20.156Z,18.40
2022-10-19T19:35:47.971Z,15.38
2022-10-19T19:38:15.615Z,14.30
2022-10-19T19:40:44.395Z,15.45
2022-10-19T19:43:12.495Z,16.25
2022-10-19T19:45:39.888Z,14.45
2022-10-19T19:48:07.551Z,18.20
2022-10-19T19:50:35.448Z,14.05
2022-10-19T19:53:03.783Z,15.90
2022-10-19T19:55:36.677Z,14.48
2022-10-19T19:58:06.243Z,20.58
2022-10-19T20:00:33.568Z,14.13
2022-10-19T20:03:00.865Z,14.57
2022-10-19T20:05:28.480Z,15.55
2022-10-19T20:07:55.795Z,14.95
2022-10-19T20:10:23.145Z,18.27
2022-10-19T20:12:50.442Z,14.07
2022-10-19T20:15:17.971Z,17.70
2022-10-19T20:17:45.388Z,17.77
2022-10-19T20:20:13.580Z,18.38
2022-10-19T20:22:44.953Z,17.23
2022-10-19T20:25:12.338Z,20.52
2022-10-19T20:27:39.697Z,17.75
2022-10-19T20:30:07.555Z,20.08
2022-10-19T20:32:35.110Z,21.00
2022-10-19T20:35:03.730Z,22.52
2022-10-19T20:37:31.363Z,18.42
2022-10-19T20:39:58.907Z,20.85
2022-10-19T20:42:26.237Z,19.95
2022-10-19T20:44:54.752Z,21.33
2022-10-19T20:47:22.219Z,20.40
2022-10-19T20:49:49.610Z,20.85
2022-10-19T20:52:16.943Z,20.85
2022-10-19T20:54:44.258Z,16.83
2022-10-19T20:57:11.614Z,20.88
2022-10-19T20:59:39.664Z,21.58
2022-10-19T21:02:07.015Z,23.98
2022-10-19T21:04:34.810Z,19.63
2022-10-19T21:07:04.355Z,21.08
2022-10-19T21:09:31.866Z,21.02
2022-10-19T21:11:59.379Z,18.38
2022-10-19T21:14:28.535Z,20.20
2022-10-19T21:16:59.862Z,24.25
2022-10-19T21:19:28.179Z,18.55
2022-10-19T21:22:01.998Z,20.85
2022-10-19T21:24:32.320Z,17.92
2022-10-19T21:27:04.865Z,22.05
2022-10-19T21:29:32.378Z,19.48
2022-10-19T21:31:59.746Z,21.08
2022-10-19T21:34:28.333Z,22.17
2022-10-19T21:36:55.759Z,23.73
2022-10-19T21:39:23.092Z,21.55
2022-10-19T21:41:50.436Z,24.40
2022-10-19T21:44:18.048Z,20.50
2022-10-19T21:46:47.283Z,19.70
2022-10-19T21:49:14.610Z,19.88
2022-10-19T21:51:44.856Z,19.83
2022-10-19T21:54:14.102Z,18.65
2022-10-19T21:56:41.558Z,25.90
2022-10-19T21:59:08.967Z,22.50
2022-10-19T22:01:40.122Z,20.63
2022-10-19T22:04:16.815Z,23.67
2022-10-19T22:06:44.284Z,22.55
2022-10-19T22:09:13.805Z,20.52
2022-10-19T22:11:41.193Z,23.02
2022-10-19T22:14:08.546Z,24.10
2022-10-19T22:16:36.993Z,24.20
2022-10-19T22:19:05.346Z,24.00
2022-10-19T22:21:34.009Z,28.45
2022-10-19T22:24:03.386Z,21.35
2022-10-19T22:26:32.728Z,21.63
2022-10-19T22:29:00.941Z,24.08
2022-10-19T22:31:29.151Z,30.58
2022-10-19T22:33:56.536Z,24.63
2022-10-19T22:36:23.842Z,25.08
2022-10-19T22:38:51.187Z,23.75
2022-10-19T22:41:18.488Z,25.00
2022-10-19T22:43:45.765Z,21.10
2022-10-19T22:46:13.044Z,28.35
2022-10-19T22:48:40.331Z,25.88
2022-10-19T22:51:07.629Z,29.15
2022-10-19T22:53:34.920Z,26.52
2022-10-19T22:56:02.469Z,21.90
2022-10-19T22:58:29.741Z,23.98
2022-10-19T23:01:10.166Z,27.92
2022-10-19T23:03:40.721Z,24.10
2022-10-19T23:06:09.097Z,26.77
2022-10-19T23:08:36.557Z,28.98
2022-10-19T23:11:03.992Z,28.58
2022-10-19T23:13:31.288Z,26.83
2022-10-19T23:15:58.595Z,31.88
2022-10-19T23:18:25.891Z,28.63
2022-10-19T23:20:57.651Z,28.75
2022-10-19T23:23:25.052Z,31.48
2022-10-19T23:26:01.493Z,34.83
2022-10-19T23:28:28.975Z,36.53
2022-10-19T23:30:58.040Z,34.22
2022-10-19T23:33:25.915Z,35.30
2022-10-19T23:35:53.211Z,32.20
2022-10-19T23:38:20.521Z,35.85
2022-10-19T23:40:47.844Z,35.28
2022-10-19T23:43:15.147Z,32.35
2022-10-19T23:45:42.407Z,35.90
2022-10-19T23:48:09.692Z,42.17
2022-10-19T23:50:36.934Z,35.65
2022-10-19T23:53:04.243Z,38.72
2022-10-19T23:55:31.551Z,39.42
2022-10-19T23:57:58.827Z,45.55
